Time;durP1;ratioP1;P1;durP2;ratioP2;P2;SDS_P1;SDS_P2;PMS_P1;PMS_P2;Temp;Humidity;BMP_temperature;BMP_pressure;BME280_temperature;BME280_humidity;BME280_pressure;Samples;Min_cycle;Max_cycle;Signal;HPM_P1;HPM_P2
2022/11/22 00:02:05;;;;;;;37.85;14.65;;;0.70;99.90;;;;;;5085395;28;20043;-69
2022/11/22 00:04:30;;;;;;;36.38;14.32;;;0.70;99.90;;;;;;5092221;28;20029;-70
2022/11/22 00:06:56;;;;;;;34.63;14.30;;;0.70;99.90;;;;;;5085135;28;20029;-69
2022/11/22 00:09:22;;;;;;;32.35;12.80;;;0.70;99.90;;;;;;5083667;28;20029;-70
2022/11/22 00:11:47;;;;;;;40.72;13.65;;;0.70;99.90;;;;;;5083907;28;20025;-70
2022/11/22 00:14:13;;;;;;;31.92;14.05;;;0.70;99.90;;;;;;5085503;28;20059;-71
2022/11/22 00:16:39;;;;;;;31.48;14.18;;;0.80;99.90;;;;;;5089411;28;20099;-71
2022/11/22 00:19:04;;;;;;;31.85;13.80;;;0.80;99.90;;;;;;5099947;28;20213;-69
2022/11/22 00:21:30;;;;;;;28.38;13.43;;;0.70;99.90;;;;;;5098827;28;20039;-71
2022/11/22 00:23:56;;;;;;;34.75;13.88;;;0.80;99.90;;;;;;5064796;28;20075;-69
2022/11/22 00:26:23;;;;;;;31.10;13.02;;;0.80;99.90;;;;;;5064012;28;20033;-71
2022/11/22 00:28:49;;;;;;;33.67;12.55;;;0.80;99.90;;;;;;5062262;28;20068;-70
2022/11/22 00:31:15;;;;;;;34.53;14.00;;;0.80;99.90;;;;;;5064065;28;20032;-70
2022/11/22 00:33:40;;;;;;;32.28;14.55;;;0.80;99.90;;;;;;5064565;28;20162;-70
2022/11/22 00:36:06;;;;;;;30.92;13.02;;;0.90;99.90;;;;;;5063786;28;20029;-72
2022/11/22 00:38:32;;;;;;;32.88;13.80;;;0.90;99.90;;;;;;5064348;28;20048;-70
2022/11/22 00:40:57;;;;;;;36.03;14.55;;;0.90;99.90;;;;;;5064502;28;20037;-69
2022/11/22 00:43:23;;;;;;;35.50;14.38;;;0.90;99.90;;;;;;5064638;28;20019;-70
2022/11/22 00:45:49;;;;;;;35.33;13.90;;;0.90;99.90;;;;;;5064584;28;20037;-71
2022/11/22 00:48:14;;;;;;;35.03;14.60;;;0.90;99.90;;;;;;5064760;28;20033;-72
2022/11/22 00:50:40;;;;;;;35.00;14.60;;;0.90;99.90;;;;;;5064232;28;20033;-72
2022/11/22 00:53:06;;;;;;;33.22;14.60;;;0.90;99.90;;;;;;5064548;28;20039;-70
2022/11/22 00:55:31;;;;;;;33.30;14.27;;;0.90;99.90;;;;;;5080542;28;20024;-70
2022/11/22 00:57:57;;;;;;;31.15;14.10;;;1.00;99.90;;;;;;5084040;28;20025;-71
2022/11/22 01:00:23;;;;;;;31.85;14.70;;;0.90;99.90;;;;;;5083792;28;20044;-69
2022/11/22 01:02:49;;;;;;;35.53;15.40;;;0.90;99.90;;;;;;5077800;28;20036;-69
2022/11/22 01:05:16;;;;;;;43.15;15.48;;;0.90;99.90;;;;;;5064274;28;20029;-70
2022/11/22 01:07:43;;;;;;;35.78;14.88;;;1.00;99.90;;;;;;5064230;28;20077;-70
2022/11/22 01:10:09;;;;;;;34.28;15.60;;;0.90;99.90;;;;;;5064321;28;20026;-71
2022/11/22 01:12:35;;;;;;;38.63;15.88;;;1.00;99.90;;;;;;5063333;28;20492;-69
2022/11/22 01:15:01;;;;;;;35.50;15.10;;;1.00;99.90;;;;;;5083714;28;20063;-69
2022/11/22 01:17:27;;;;;;;39.80;16.90;;;1.00;99.90;;;;;;5083378;28;20047;-70
2022/11/22 01:19:52;;;;;;;35.13;15.57;;;1.00;99.90;;;;;;5083361;28;20045;-68
2022/11/22 01:22:18;;;;;;;35.28;15.93;;;1.00;99.90;;;;;;5090455;28;20066;-69
2022/11/22 01:24:44;;;;;;;39.97;16.83;;;1.10;99.90;;;;;;5097550;28;20028;-72
2022/11/22 01:27:09;;;;;;;43.08;16.33;;;1.00;99.90;;;;;;5091618;28;20030;-69
2022/11/22 01:29:35;;;;;;;37.00;15.98;;;1.10;99.90;;;;;;5090068;28;20024;-70
2022/11/22 01:32:01;;;;;;;42.65;18.05;;;1.10;99.90;;;;;;5082361;28;20024;-69
2022/11/22 01:34:26;;;;;;;44.85;17.27;;;1.10;99.90;;;;;;5091981;28;20652;-70
2022/11/22 01:36:52;;;;;;;44.58;17.08;;;1.10;99.90;;;;;;5083508;28;20031;-69
2022/11/22 01:39:18;;;;;;;42.40;17.95;;;1.10;99.90;;;;;;5083445;28;20648;-71
2022/11/22 01:41:43;;;;;;;45.35;19.10;;;1.10;99.90;;;;;;5084414;28;20024;-68
2022/11/22 01:44:24;;;;;;;42.50;17.40;;;1.10;99.90;;;;;;5086218;28;20024;-69
2022/11/22 01:46:57;;;;;;;42.65;17.98;;;1.10;99.90;;;;;;5103277;28;20448;-71
2022/11/22 01:49:45;;;;;;;38.53;17.33;;;1.10;99.90;;;;;;5104195;28;20024;-71
2022/11/22 01:52:20;;;;;;;41.80;17.45;;;1.10;99.90;;;;;;5097108;28;20591;-72
2022/11/22 01:54:55;;;;;;;47.97;18.17;;;1.20;99.90;;;;;;5085961;28;20025;-72
2022/11/22 01:57:24;;;;;;;46.35;17.67;;;1.20;99.90;;;;;;5083256;28;20111;-68
2022/11/22 01:59:56;;;;;;;44.72;19.00;;;1.20;99.90;;;;;;5082556;28;20044;-72
2022/11/22 02:02:23;;;;;;;45.95;17.50;;;1.20;99.90;;;;;;5083101;28;20143;-70
2022/11/22 02:04:49;;;;;;;47.15;18.40;;;1.20;99.90;;;;;;5085927;28;20406;-72
2022/11/22 02:07:33;;;;;;;47.22;19.23;;;1.20;99.90;;;;;;5099601;28;20055;-71
2022/11/22 02:09:59;;;;;;;44.35;17.58;;;1.20;99.90;;;;;;5094278;28;20641;-70
2022/11/22 02:12:27;;;;;;;50.22;18.90;;;1.20;99.90;;;;;;5090083;28;20032;-70
2022/11/22 02:14:54;;;;;;;46.38;18.80;;;1.20;99.90;;;;;;5087570;28;20047;-70
2022/11/22 02:17:20;;;;;;;47.78;19.13;;;1.20;99.90;;;;;;5082476;28;20084;-71
2022/11/22 02:19:48;;;;;;;52.13;18.63;;;1.20;99.90;;;;;;5084057;28;20063;-69
2022/11/22 02:22:39;;;;;;;51.75;19.88;;;1.20;99.90;;;;;;5101511;28;20040;-71
2022/11/22 02:25:16;;;;;;;48.30;17.08;;;1.20;99.90;;;;;;5101711;28;20037;-69
2022/11/22 02:27:42;;;;;;;42.50;16.35;;;1.20;99.90;;;;;;5095944;28;20027;-72
2022/11/22 02:30:08;;;;;;;50.03;18.98;;;1.20;99.90;;;;;;5087096;28;20025;-70
2022/11/22 02:32:34;;;;;;;52.55;20.20;;;1.20;99.90;;;;;;5101269;28;20504;-69
2022/11/22 02:35:00;;;;;;;50.53;18.92;;;1.20;99.90;;;;;;5101394;28;20028;-71
2022/11/22 02:37:30;;;;;;;48.75;19.60;;;1.20;99.90;;;;;;5100745;28;20102;-70
2022/11/22 02:39:59;;;;;;;56.72;21.30;;;1.20;99.90;;;;;;5101567;28;20069;-71
2022/11/22 02:42:26;;;;;;;59.67;20.92;;;1.20;99.90;;;;;;5100829;28;20020;-71
2022/11/22 02:44:52;;;;;;;53.58;20.65;;;1.20;99.90;;;;;;5101178;28;20048;-71
2022/11/22 02:47:17;;;;;;;62.92;21.48;;;1.20;99.90;;;;;;5101774;28;20039;-70
2022/11/22 02:49:43;;;;;;;57.60;20.38;;;1.20;99.90;;;;;;5101460;28;20035;-70
2022/11/22 02:52:09;;;;;;;58.15;20.23;;;1.20;99.90;;;;;;5101422;28;20043;-69
2022/11/22 02:54:34;;;;;;;57.80;22.67;;;1.30;99.90;;;;;;5101172;28;20050;-71
2022/11/22 02:57:01;;;;;;;59.33;22.35;;;1.20;99.90;;;;;;5101275;28;20478;-70
2022/11/22 02:59:27;;;;;;;58.83;21.88;;;1.30;99.90;;;;;;5101176;28;20028;-71
2022/11/22 03:01:53;;;;;;;54.42;22.17;;;1.30;99.90;;;;;;5100896;28;20065;-70
2022/11/22 03:04:25;;;;;;;65.10;22.25;;;1.30;99.90;;;;;;5101234;28;20032;-70
2022/11/22 03:06:55;;;;;;;64.78;22.70;;;1.30;99.90;;;;;;5101768;28;20066;-69
2022/11/22 03:09:25;;;;;;;67.72;22.55;;;1.30;99.90;;;;;;5100917;28;20027;-72
2022/11/22 03:11:52;;;;;;;62.85;23.63;;;1.30;99.90;;;;;;5101713;28;20031;-71
2022/11/22 03:14:18;;;;;;;60.53;21.92;;;1.40;99.90;;;;;;5101755;28;20051;-70
2022/11/22 03:16:46;;;;;;;64.00;24.13;;;1.40;99.90;;;;;;5101324;28;20089;-71
2022/11/22 03:19:12;;;;;;;59.17;23.33;;;1.40;99.90;;;;;;5101566;28;20036;-71
2022/11/22 03:21:40;;;;;;;67.30;23.07;;;1.40;99.90;;;;;;5060666;28;1110680;-69
2022/11/22 03:24:07;;;;;;;71.55;24.17;;;1.40;99.90;;;;;;5100793;28;20066;-70
2022/11/22 03:26:33;;;;;;;68.63;24.73;;;1.40;99.90;;;;;;5102550;28;20070;-70
2022/11/22 03:28:59;;;;;;;71.05;24.10;;;1.40;99.90;;;;;;5104792;28;20043;-72
2022/11/22 03:31:25;;;;;;;72.00;24.00;;;1.40;99.90;;;;;;5105505;28;20551;-72
2022/11/22 03:33:51;;;;;;;75.75;24.73;;;1.40;99.90;;;;;;5105800;28;20028;-72
2022/11/22 03:36:17;;;;;;;62.03;23.90;;;1.40;99.90;;;;;;5106587;28;20020;-71
2022/11/22 03:38:42;;;;;;;73.50;24.83;;;1.40;99.90;;;;;;5105980;28;20388;-72
2022/11/22 03:41:08;;;;;;;81.15;25.52;;;1.40;99.90;;;;;;5103741;28;20043;-71
2022/11/22 03:43:34;;;;;;;72.72;24.08;;;1.50;99.90;;;;;;5091763;28;20032;-71
2022/11/22 03:45:59;;;;;;;58.33;23.02;;;1.50;99.90;;;;;;5085993;28;20037;-71
2022/11/22 03:48:25;;;;;;;76.47;26.15;;;1.50;99.90;;;;;;5085767;28;20025;-70
2022/11/22 03:50:51;;;;;;;71.43;23.17;;;1.50;99.90;;;;;;5085581;28;20025;-68
2022/11/22 03:53:16;;;;;;;72.65;26.08;;;1.50;99.90;;;;;;5084212;28;20035;-70
2022/11/22 03:55:42;;;;;;;62.60;23.17;;;1.40;99.90;;;;;;5104143;28;20496;-71
2022/11/22 03:58:08;;;;;;;66.90;25.00;;;1.40;99.90;;;;;;5105817;28;20032;-71
2022/11/22 04:00:35;;;;;;;62.40;23.52;;;1.40;99.90;;;;;;5105434;28;20628;-70
2022/11/22 04:03:00;;;;;;;72.18;25.98;;;1.50;99.90;;;;;;5106140;28;20032;-70
2022/11/22 04:05:26;;;;;;;65.25;24.80;;;1.50;99.90;;;;;;5106059;28;20035;-68
2022/11/22 04:07:58;;;;;;;67.78;24.73;;;1.50;99.90;;;;;;5101929;28;20024;-69
2022/11/22 04:10:25;;;;;;;67.00;24.83;;;1.50;99.90;;;;;;5089401;28;20033;-69
2022/11/22 04:12:50;;;;;;;66.28;24.92;;;1.50;99.90;;;;;;5086314;28;20083;-70
2022/11/22 04:15:16;;;;;;;61.33;24.38;;;1.50;99.90;;;;;;5098468;28;20036;-70
2022/11/22 04:17:44;;;;;;;64.45;23.40;;;1.50;99.90;;;;;;5106510;28;20024;-71
2022/11/22 04:23:04;;;;;;;63.58;23.25;;;1.50;99.90;;;;;;5106651;28;20058;-69
2022/11/22 04:25:32;;;;;;;59.53;23.80;;;1.50;99.90;;;;;;5086533;28;20029;-70
2022/11/22 04:27:58;;;;;;;57.95;23.20;;;1.50;99.90;;;;;;5086187;28;20034;-69
2022/11/22 04:33:25;;;;;;;63.97;23.88;;;1.60;99.90;;;;;;5063858;28;20037;-70
2022/11/22 04:35:52;;;;;;;66.25;24.88;;;1.60;99.90;;;;;;5075965;28;20044;-69
2022/11/22 04:38:18;;;;;;;67.35;24.90;;;1.60;99.90;;;;;;5086444;28;20020;-69
2022/11/22 04:40:44;;;;;;;61.30;22.40;;;1.60;99.90;;;;;;5086111;28;20029;-71
2022/11/22 04:46:01;;;;;;;56.63;21.08;;;1.60;99.90;;;;;;5086266;28;20074;-71
2022/11/22 04:48:26;;;;;;;56.70;20.98;;;1.60;99.90;;;;;;5084685;28;20029;-71
2022/11/22 04:53:36;;;;;;;58.03;21.40;;;1.60;99.90;;;;;;5085972;28;20067;-70
2022/11/22 04:56:02;;;;;;;54.92;21.83;;;1.60;99.90;;;;;;5085662;28;20029;-70
2022/11/22 04:58:27;;;;;;;62.30;23.38;;;1.60;99.90;;;;;;5085301;28;20123;-69
2022/11/22 05:00:53;;;;;;;66.95;23.33;;;1.70;99.90;;;;;;5085558;28;20024;-69
2022/11/22 05:03:19;;;;;;;56.50;21.48;;;1.70;99.90;;;;;;5085898;28;20108;-71
2022/11/22 05:05:46;;;;;;;57.60;21.55;;;1.70;99.90;;;;;;5090684;28;20029;-70
2022/11/22 05:08:12;;;;;;;54.97;20.55;;;1.70;99.90;;;;;;5085792;28;20040;-69
2022/11/22 05:10:57;;;;;;;57.35;21.55;;;1.70;99.90;;;;;;5090185;28;20085;-71
2022/11/22 05:13:25;;;;;;;54.08;21.55;;;1.70;99.90;;;;;;5085600;28;20033;-70
2022/11/22 05:15:51;;;;;;;60.85;22.98;;;1.70;99.90;;;;;;5086364;28;20119;-70
2022/11/22 05:18:18;;;;;;;57.50;22.15;;;1.70;99.90;;;;;;5105996;28;20028;-69
2022/11/22 05:20:44;;;;;;;57.20;21.08;;;1.70;99.90;;;;;;5106558;28;20054;-68
2022/11/22 05:25:55;;;;;;;55.70;21.13;;;1.70;99.90;;;;;;5085507;28;20411;-69
2022/11/22 05:28:21;;;;;;;55.53;19.90;;;1.70;99.90;;;;;;5085809;28;20084;-70
2022/11/22 05:30:46;;;;;;;53.20;21.63;;;1.70;99.90;;;;;;5085459;28;20043;-71
2022/11/22 05:33:12;;;;;;;56.80;21.88;;;1.70;99.90;;;;;;5084988;28;20028;-70
2022/11/22 05:35:38;;;;;;;54.78;16.80;;;1.70;99.90;;;;;;5085346;28;20036;-70
2022/11/22 05:38:03;;;;;;;54.50;20.83;;;1.70;99.90;;;;;;5084943;28;20028;-68
2022/11/22 05:40:29;;;;;;;51.55;20.83;;;1.70;99.90;;;;;;5084923;28;20040;-69
2022/11/22 05:42:56;;;;;;;53.53;20.70;;;1.70;99.90;;;;;;5085462;28;20031;-69
2022/11/22 05:45:22;;;;;;;54.25;21.35;;;1.70;99.90;;;;;;5084686;28;20025;-69
2022/11/22 05:47:48;;;;;;;52.95;21.52;;;1.70;99.90;;;;;;5105417;28;20036;-71
2022/11/22 05:50:14;;;;;;;53.65;20.92;;;1.70;99.90;;;;;;5104099;28;20757;-70
2022/11/22 05:52:39;;;;;;;48.67;18.38;;;1.80;99.90;;;;;;5104701;28;20042;-71
2022/11/22 05:55:06;;;;;;;53.03;18.27;;;1.80;99.90;;;;;;5103396;28;20030;-72
2022/11/22 05:57:32;;;;;;;55.75;20.83;;;1.80;99.90;;;;;;5105102;28;20040;-70
2022/11/22 05:59:58;;;;;;;51.85;20.52;;;1.80;99.90;;;;;;5104721;28;20066;-71
2022/11/22 06:02:24;;;;;;;53.55;19.13;;;1.80;99.90;;;;;;5104582;28;20491;-68
2022/11/22 06:04:50;;;;;;;49.80;19.92;;;1.80;99.90;;;;;;5104975;28;20028;-72
2022/11/22 06:07:15;;;;;;;52.30;18.80;;;1.80;99.90;;;;;;5104700;28;20175;-71
2022/11/22 06:09:41;;;;;;;53.70;20.10;;;1.80;99.90;;;;;;5104940;28;20031;-69
2022/11/22 06:12:07;;;;;;;54.35;20.50;;;1.80;99.90;;;;;;5104465;28;20050;-70
2022/11/22 06:14:32;;;;;;;50.67;19.77;;;1.80;99.90;;;;;;5104652;28;20080;-69
2022/11/22 06:16:58;;;;;;;50.83;20.00;;;1.80;99.90;;;;;;5102456;28;20054;-71
2022/11/22 06:19:24;;;;;;;56.88;20.77;;;1.80;99.90;;;;;;5104201;28;20039;-71
2022/11/22 06:21:49;;;;;;;53.75;19.80;;;1.80;99.90;;;;;;5094379;28;20067;-70
2022/11/22 06:24:15;;;;;;;54.65;19.80;;;1.80;99.90;;;;;;5089955;28;20028;-72
2022/11/22 06:26:40;;;;;;;51.83;19.85;;;1.80;99.90;;;;;;5085080;28;20043;-71
2022/11/22 06:29:06;;;;;;;53.42;21.08;;;1.80;99.90;;;;;;5084884;28;20040;-70
2022/11/22 06:31:32;;;;;;;49.13;19.15;;;1.80;99.90;;;;;;5086862;28;20913;-71
2022/11/22 06:33:59;;;;;;;48.97;19.95;;;1.80;99.90;;;;;;5088180;28;20025;-71
2022/11/22 06:36:27;;;;;;;48.70;19.30;;;1.90;99.90;;;;;;5083193;28;20092;-72
2022/11/22 06:38:53;;;;;;;54.13;19.30;;;1.80;99.90;;;;;;5087032;28;20045;-72
2022/11/22 06:41:23;;;;;;;49.42;18.35;;;1.90;99.90;;;;;;5093330;28;20111;-71
2022/11/22 06:43:51;;;;;;;48.75;19.38;;;1.90;99.90;;;;;;5091240;28;20093;-70
2022/11/22 06:46:19;;;;;;;50.20;19.15;;;1.90;99.90;;;;;;5084883;28;20430;-71
2022/11/22 06:48:45;;;;;;;53.10;20.30;;;1.90;99.90;;;;;;5086529;28;20088;-71
2022/11/22 06:51:20;;;;;;;50.83;20.20;;;1.90;99.90;;;;;;5084104;28;20020;-71
2022/11/22 06:53:48;;;;;;;48.75;19.20;;;1.90;99.90;;;;;;5089367;28;20040;-70
2022/11/22 06:56:20;;;;;;;54.83;19.77;;;1.90;99.90;;;;;;5092292;28;20104;-71
2022/11/22 06:58:48;;;;;;;48.72;18.40;;;1.90;99.90;;;;;;5096189;28;20043;-71
2022/11/22 07:01:19;;;;;;;50.92;19.98;;;2.00;99.90;;;;;;5103376;28;20048;-71
2022/11/22 07:03:45;;;;;;;53.63;20.80;;;2.00;99.90;;;;;;5103629;28;20025;-69
2022/11/22 07:06:13;;;;;;;47.67;19.85;;;2.00;99.90;;;;;;5103375;28;20473;-70
2022/11/22 07:08:41;;;;;;;51.50;19.13;;;2.00;99.90;;;;;;5103563;28;20488;-71
2022/11/22 07:11:09;;;;;;;46.58;20.35;;;2.00;99.90;;;;;;5103915;28;20035;-71
2022/11/22 07:13:36;;;;;;;40.13;16.10;;;2.00;99.90;;;;;;5102353;28;20053;-72
2022/11/22 07:16:03;;;;;;;55.95;20.83;;;2.00;99.90;;;;;;5103724;28;20503;-70
2022/11/22 07:18:29;;;;;;;50.78;20.10;;;2.00;99.90;;;;;;5104216;28;20028;-69
2022/11/22 07:21:22;;;;;;;48.88;20.52;;;2.00;99.90;;;;;;5103589;28;20033;-70
2022/11/22 07:23:52;;;;;;;49.10;18.63;;;2.00;99.90;;;;;;5101637;28;20044;-71
2022/11/22 07:26:20;;;;;;;60.63;19.40;;;2.10;99.90;;;;;;5103307;28;20024;-71
2022/11/22 07:28:47;;;;;;;47.72;20.67;;;2.10;99.90;;;;;;5104020;28;20054;-70
2022/11/22 07:31:14;;;;;;;43.67;17.15;;;2.10;99.90;;;;;;5098625;28;20036;-72
2022/11/22 07:33:41;;;;;;;50.00;19.45;;;2.10;99.90;;;;;;5087607;28;20121;-71
2022/11/22 07:36:20;;;;;;;48.53;18.67;;;2.10;99.90;;;;;;5103155;28;20032;-71
2022/11/22 07:38:47;;;;;;;43.42;17.98;;;2.10;99.90;;;;;;5083622;28;20036;-72
2022/11/22 07:41:14;;;;;;;48.13;18.70;;;2.10;99.90;;;;;;5083872;28;20047;-71
2022/11/22 07:43:40;;;;;;;45.53;18.52;;;2.10;99.90;;;;;;5088987;28;20032;-70
2022/11/22 07:46:13;;;;;;;45.80;18.48;;;2.10;99.90;;;;;;5103561;28;20035;-70
2022/11/22 07:48:39;;;;;;;43.10;17.13;;;2.20;99.90;;;;;;5101740;28;20021;-70
2022/11/22 07:51:06;;;;;;;49.35;18.20;;;2.20;99.90;;;;;;5086117;28;20041;-70
2022/11/22 07:53:35;;;;;;;36.50;16.27;;;2.10;99.90;;;;;;5089796;28;20029;-71
2022/11/22 07:56:11;;;;;;;49.42;18.83;;;2.20;99.90;;;;;;5096530;28;20031;-69
2022/11/22 07:58:41;;;;;;;48.20;19.30;;;2.10;99.90;;;;;;5083667;28;20028;-72
2022/11/22 08:01:11;;;;;;;53.72;19.10;;;2.20;99.90;;;;;;5088434;28;20058;-71
2022/11/22 08:03:37;;;;;;;51.33;20.98;;;2.20;99.90;;;;;;5085699;28;20028;-70
2022/11/22 08:06:04;;;;;;;48.70;21.38;;;2.20;99.90;;;;;;5093835;28;20090;-70
2022/11/22 08:08:30;;;;;;;46.83;19.15;;;2.30;99.90;;;;;;5091314;28;20040;-71
2022/11/22 08:10:56;;;;;;;53.92;21.15;;;2.20;99.90;;;;;;5085452;28;20024;-72
2022/11/22 08:13:22;;;;;;;53.38;19.95;;;2.30;99.90;;;;;;5092626;28;20033;-71
2022/11/22 08:15:48;;;;;;;61.33;22.48;;;2.30;99.90;;;;;;5090996;28;20024;-71
2022/11/22 08:18:14;;;;;;;41.25;16.02;;;2.30;99.90;;;;;;5088713;28;20031;-74
2022/11/22 08:20:40;;;;;;;52.47;21.52;;;2.30;99.90;;;;;;5085814;28;20044;-71
2022/11/22 08:23:06;;;;;;;56.90;22.42;;;2.30;99.90;;;;;;5086483;28;20057;-70
2022/11/22 08:25:31;;;;;;;50.55;20.50;;;2.30;99.90;;;;;;5087555;28;20060;-72
2022/11/22 08:27:57;;;;;;;53.55;21.60;;;2.30;99.90;;;;;;5098400;28;20050;-72
2022/11/22 08:30:23;;;;;;;54.83;21.45;;;2.40;99.90;;;;;;5090823;28;20069;-70
2022/11/22 08:32:50;;;;;;;56.60;20.17;;;2.40;99.90;;;;;;5085714;28;20040;-71
2022/11/22 08:35:16;;;;;;;58.35;20.45;;;2.40;99.90;;;;;;5089886;28;20046;-71
2022/11/22 08:37:42;;;;;;;53.65;21.95;;;2.40;99.90;;;;;;5088932;28;20032;-72
2022/11/22 08:40:08;;;;;;;46.45;20.58;;;2.50;99.90;;;;;;5096270;28;20464;-71
2022/11/22 08:42:34;;;;;;;58.72;21.48;;;2.50;99.90;;;;;;5106353;28;20118;-71
2022/11/22 08:44:59;;;;;;;54.00;21.85;;;2.50;99.90;;;;;;5105991;28;20032;-70
2022/11/22 08:47:25;;;;;;;52.00;21.08;;;2.50;99.90;;;;;;5106368;28;20028;-69
2022/11/22 08:49:50;;;;;;;51.38;21.50;;;2.50;99.90;;;;;;5106304;28;20027;-71
2022/11/22 08:52:22;;;;;;;53.95;20.10;;;2.60;99.90;;;;;;5106570;28;20533;-72
2022/11/22 08:54:48;;;;;;;55.03;20.08;;;2.60;99.90;;;;;;5104289;28;20058;-71
2022/11/22 08:57:13;;;;;;;53.35;22.42;;;2.60;99.90;;;;;;5086942;28;20029;-69
2022/11/22 08:59:39;;;;;;;50.67;18.90;;;2.60;99.90;;;;;;5088713;28;20065;-71
2022/11/22 09:02:05;;;;;;;52.85;21.10;;;2.60;99.90;;;;;;5104891;28;20020;-71
2022/11/22 09:04:30;;;;;;;49.45;20.42;;;2.60;99.90;;;;;;5096809;28;20028;-71
2022/11/22 09:06:56;;;;;;;41.70;16.52;;;2.60;99.90;;;;;;5086999;28;20480;-71
2022/11/22 09:09:22;;;;;;;54.70;22.48;;;2.70;99.90;;;;;;5096097;28;20055;-72
2022/11/22 09:11:48;;;;;;;45.85;17.30;;;2.70;99.90;;;;;;5092308;28;20054;-72
2022/11/22 09:14:13;;;;;;;49.90;21.35;;;2.70;99.90;;;;;;5092106;28;20028;-72
2022/11/22 09:16:39;;;;;;;51.95;22.88;;;2.70;99.90;;;;;;5105827;28;20036;-70
2022/11/22 09:19:05;;;;;;;62.38;23.25;;;2.80;99.90;;;;;;5105848;28;20042;-69
2022/11/22 09:21:30;;;;;;;60.30;23.02;;;2.80;99.90;;;;;;5105431;28;20047;-69
2022/11/22 09:23:56;;;;;;;54.95;21.52;;;2.80;99.90;;;;;;5098947;28;20083;-70
2022/11/22 09:26:24;;;;;;;56.75;22.45;;;2.80;99.90;;;;;;5094570;28;20027;-71
2022/11/22 09:28:51;;;;;;;55.30;22.00;;;2.80;99.90;;;;;;5084558;28;20036;-73
2022/11/22 09:31:20;;;;;;;62.28;22.50;;;2.90;99.90;;;;;;5092068;28;20020;-72
2022/11/22 09:33:48;;;;;;;54.58;22.35;;;2.90;99.90;;;;;;5104826;28;20028;-71
2022/11/22 09:36:19;;;;;;;55.65;22.73;;;2.90;99.90;;;;;;5103677;28;20050;-70
2022/11/22 09:38:45;;;;;;;52.85;21.08;;;2.90;99.90;;;;;;5093389;28;20032;-70
2022/11/22 09:41:35;;;;;;;54.13;22.20;;;3.00;99.90;;;;;;5091911;28;20924;-70
2022/11/22 09:44:18;;;;;;;53.10;19.75;;;3.00;99.90;;;;;;5093774;28;20024;-70
2022/11/22 09:46:52;;;;;;;56.30;20.67;;;3.00;99.90;;;;;;5088216;28;20029;-72
2022/11/22 09:49:36;;;;;;;49.93;20.77;;;3.00;99.90;;;;;;5091159;28;20491;-70
2022/11/22 09:52:19;;;;;;;;;;;3.00;99.90;;;;;;5092324;28;20503;-70
2022/11/22 09:54:56;;;;;;;56.05;19.17;;;3.10;99.90;;;;;;5091315;28;19930;-71
2022/11/22 09:57:33;;;;;;;45.35;18.20;;;3.10;99.90;;;;;;5089229;28;20044;-71
2022/11/22 10:00:06;;;;;;;52.45;21.40;;;3.10;99.90;;;;;;5087719;28;20040;-71
2022/11/22 10:02:38;;;;;;;54.80;20.33;;;3.10;99.90;;;;;;5091140;28;20028;-71
2022/11/22 10:05:16;;;;;;;54.08;22.27;;;3.20;99.90;;;;;;5089064;28;20036;-73
2022/11/22 10:07:50;;;;;;;47.20;20.65;;;3.20;99.90;;;;;;5095617;28;20021;-72
2022/11/22 10:10:28;;;;;;;56.83;23.77;;;3.20;99.90;;;;;;5102692;28;20043;-73
2022/11/22 10:13:18;;;;;;;52.67;20.95;;;3.30;99.90;;;;;;5104764;28;20102;-72
2022/11/22 10:16:09;;;;;;;54.13;23.00;;;3.30;99.90;;;;;;5095880;28;20031;-71
2022/11/22 10:18:52;;;;;;;54.28;20.73;;;3.30;99.90;;;;;;5096219;28;20024;-72
2022/11/22 10:21:18;;;;;;;52.75;21.20;;;3.40;99.90;;;;;;5092939;28;20016;-72
2022/11/22 10:23:45;;;;;;;55.90;21.45;;;3.40;99.90;;;;;;5082973;28;20457;-72
2022/11/22 10:26:27;;;;;;;53.13;21.75;;;3.40;99.90;;;;;;5084326;28;20024;-71
2022/11/22 10:29:07;;;;;;;48.63;17.17;;;3.50;99.90;;;;;;5095081;28;20028;-72
2022/11/22 10:31:59;;;;;;;55.22;21.27;;;3.50;99.90;;;;;;5082971;28;20020;-71
2022/11/22 10:34:50;;;;;;;53.60;21.88;;;3.60;99.90;;;;;;5078452;28;20040;-73
2022/11/22 10:37:23;;;;;;;42.30;17.15;;;3.60;99.90;;;;;;5086192;28;20032;-72
2022/11/22 10:40:20;;;;;;;52.17;20.30;;;3.70;99.90;;;;;;5088654;28;20036;-72
2022/11/22 10:43:31;;;;;;;47.78;20.77;;;3.70;99.90;;;;;;5086809;28;20028;-70
2022/11/22 10:46:05;;;;;;;57.55;21.45;;;3.80;99.90;;;;;;5063614;28;20036;-72
2022/11/22 10:48:59;;;;;;;49.55;21.83;;;3.90;99.90;;;;;;5090690;28;20091;-71
2022/11/22 10:51:55;;;;;;;50.95;20.45;;;4.00;99.90;;;;;;5087272;28;20051;-73
2022/11/22 10:54:36;;;;;;;50.92;20.52;;;4.20;99.90;;;;;;5066316;28;20131;-73
2022/11/22 10:57:02;;;;;;;55.83;21.80;;;4.30;99.90;;;;;;5085358;28;20538;-72
2022/11/22 10:59:47;;;;;;;48.38;20.83;;;4.40;99.90;;;;;;5085745;28;20050;-70
2022/11/22 11:02:37;;;;;;;49.33;20.13;;;4.60;99.90;;;;;;5084264;28;20028;-71
2022/11/22 11:05:06;;;;;;;45.83;17.52;;;4.70;99.90;;;;;;5084994;28;20055;-71
2022/11/22 11:07:33;;;;;;;46.47;20.77;;;4.80;99.90;;;;;;5084984;28;20028;-73
2022/11/22 11:10:04;;;;;;;48.25;19.15;;;4.90;99.90;;;;;;5089754;28;20024;-73
2022/11/22 11:12:45;;;;;;;53.25;19.60;;;5.00;99.90;;;;;;5085625;28;20131;-70
2022/11/22 11:15:22;;;;;;;45.45;16.67;;;5.10;99.90;;;;;;5096715;28;20032;-70
2022/11/22 11:18:00;;;;;;;46.47;19.70;;;5.30;99.90;;;;;;5098314;28;20028;-69
2022/11/22 11:20:32;;;;;;;47.55;18.85;;;5.40;99.90;;;;;;5094620;28;20059;-69
2022/11/22 11:22:58;;;;;;;48.08;18.67;;;5.40;99.90;;;;;;5103424;28;20070;-71
2022/11/22 11:25:39;;;;;;;51.72;19.38;;;5.60;99.90;;;;;;5091961;28;20021;-72
2022/11/22 11:28:17;;;;;;;38.33;16.45;;;5.80;99.90;;;;;;5081683;28;20033;-71
2022/11/22 11:30:58;;;;;;;48.35;18.50;;;6.00;99.90;;;;;;5095597;28;20032;-73
2022/11/22 11:33:27;;;;;;;33.45;14.93;;;6.30;99.90;;;;;;5103772;28;20020;-72
2022/11/22 11:36:08;;;;;;;39.58;17.95;;;6.50;99.90;;;;;;5092762;28;20032;-71
2022/11/22 11:38:41;;;;;;;37.80;16.67;;;6.60;99.90;;;;;;5102837;28;20038;-72
2022/11/22 11:41:31;;;;;;;40.13;17.30;;;6.80;99.90;;;;;;5102596;28;20099;-73
2022/11/22 11:44:02;;;;;;;43.72;16.63;;;6.90;99.90;;;;;;5084155;28;20029;-73
2022/11/22 11:46:40;;;;;;;38.50;16.67;;;6.70;99.90;;;;;;5100077;28;20043;-72
2022/11/22 11:49:19;;;;;;;37.33;15.75;;;6.60;99.90;;;;;;5102077;28;20024;-70
2022/11/22 11:51:48;;;;;;;36.30;16.27;;;6.50;99.90;;;;;;5096706;28;20385;-72
2022/11/22 11:54:15;;;;;;;34.00;14.70;;;6.50;99.90;;;;;;5107964;28;20031;-73
2022/11/22 11:56:59;;;;;;;43.03;16.80;;;6.60;99.90;;;;;;5107415;28;20035;-72
2022/11/22 11:59:37;;;;;;;34.50;14.95;;;6.70;99.90;;;;;;5102978;28;20075;-72
2022/11/22 12:02:08;;;;;;;37.20;15.10;;;6.90;99.90;;;;;;5087970;28;20025;-72
2022/11/22 12:04:43;;;;;;;35.28;15.02;;;7.00;99.90;;;;;;5102533;28;20033;-72
2022/11/22 12:07:18;;;;;;;35.50;15.90;;;7.10;99.90;;;;;;5087715;28;20024;-72
2022/11/22 12:09:44;;;;;;;;;;;7.20;99.90;;;;;;5090130;28;20062;-72
2022/11/22 12:12:30;;;;;;;29.95;13.20;;;7.40;99.90;;;;;;5089297;28;19912;-71
2022/11/22 12:15:09;;;;;;;39.00;15.25;;;7.50;99.90;;;;;;5088159;28;20024;-72
2022/11/22 12:17:44;;;;;;;32.17;14.60;;;7.60;99.90;;;;;;5091808;28;20377;-72
2022/11/22 12:20:16;;;;;;;33.50;14.48;;;7.70;99.90;;;;;;5088698;28;20040;-72
2022/11/22 12:22:53;;;;;;;31.80;13.07;;;7.90;99.90;;;;;;5086440;28;20056;-71
2022/11/22 12:25:34;;;;;;;31.83;14.48;;;8.10;99.90;;;;;;5088409;28;20108;-71
2022/11/22 12:28:20;;;;;;;26.17;12.85;;;8.20;99.90;;;;;;5087318;28;20036;-71
2022/11/22 12:31:22;;;;;;;30.88;13.25;;;8.20;99.90;;;;;;5088354;28;20032;-73
2022/11/22 12:33:58;;;;;;;32.20;13.32;;;8.20;99.90;;;;;;5084217;28;20113;-71
2022/11/22 12:36:34;;;;;;;30.65;13.23;;;8.20;99.90;;;;;;5093090;28;20123;-71
2022/11/22 12:39:03;;;;;;;34.85;12.88;;;8.20;99.90;;;;;;5103786;28;20043;-71
2022/11/22 12:41:32;;;;;;;29.08;12.52;;;8.10;99.90;;;;;;5091209;28;20036;-71
2022/11/22 12:44:01;;;;;;;29.30;10.73;;;8.00;99.90;;;;;;5085966;28;20025;-71
2022/11/22 12:46:43;;;;;;;32.17;12.98;;;8.00;99.90;;;;;;5090399;28;20032;-69
2022/11/22 12:49:14;;;;;;;28.98;13.82;;;7.90;99.90;;;;;;5091706;28;20036;-70
2022/11/22 12:51:56;;;;;;;28.35;12.65;;;7.90;99.90;;;;;;5086559;28;20025;-71
2022/11/22 12:54:30;;;;;;;27.63;13.65;;;8.00;99.90;;;;;;5092804;28;20029;-71
2022/11/22 12:57:01;;;;;;;36.83;14.52;;;8.00;99.90;;;;;;5092051;28;20092;-73
2022/11/22 12:59:52;;;;;;;28.50;13.00;;;8.10;99.90;;;;;;5087880;28;20040;-70
2022/11/22 13:02:48;;;;;;;27.63;11.52;;;8.20;99.90;;;;;;5087131;28;20505;-71
2022/11/22 13:05:25;;;;;;;27.50;12.93;;;8.20;99.90;;;;;;5089918;28;20039;-72
2022/11/22 13:08:14;;;;;;;28.13;12.25;;;8.20;99.90;;;;;;5106112;28;20190;-71